sensor_id;sensor_type;location;lat;lon;timestamp;P1;durP1;ratioP1;P2;durP2;ratioP2
61188;SDS011;47054;39.716;2.904;2022-11-02T00:01:42;14.65;;;4.35;;
61188;SDS011;47054;39.716;2.904;2022-11-02T00:04:27;9.02;;;4.40;;
61188;SDS011;47054;39.716;2.904;2022-11-02T00:07:12;10.23;;;4.30;;
61188;SDS011;47054;39.716;2.904;2022-11-02T00:09:56;7.50;;;4.40;;
61188;SDS011;47054;39.716;2.904;2022-11-02T00:12:41;8.07;;;3.97;;
61188;SDS011;47054;39.716;2.904;2022-11-02T00:15:25;6.22;;;3.53;;
61188;SDS011;47054;39.716;2.904;2022-11-02T00:18:13;10.48;;;4.20;;
61188;SDS011;47054;39.716;2.904;2022-11-02T00:20:58;10.70;;;4.05;;
61188;SDS011;47054;39.716;2.904;2022-11-02T00:23:44;11.60;;;4.13;;
61188;SDS011;47054;39.716;2.904;2022-11-02T00:26:30;9.05;;;3.90;;
61188;SDS011;47054;39.716;2.904;2022-11-02T00:29:16;13.23;;;4.30;;
61188;SDS011;47054;39.716;2.904;2022-11-02T00:32:01;9.07;;;4.03;;
61188;SDS011;47054;39.716;2.904;2022-11-02T00:34:45;10.30;;;4.15;;
61188;SDS011;47054;39.716;2.904;2022-11-02T00:37:30;8.80;;;4.03;;
61188;SDS011;47054;39.716;2.904;2022-11-02T00:40:15;11.27;;;4.90;;
61188;SDS011;47054;39.716;2.904;2022-11-02T00:43:00;8.65;;;4.00;;
61188;SDS011;47054;39.716;2.904;2022-11-02T00:45:44;10.70;;;4.10;;
61188;SDS011;47054;39.716;2.904;2022-11-02T00:48:29;6.53;;;3.38;;
61188;SDS011;47054;39.716;2.904;2022-11-02T00:51:13;9.07;;;3.90;;
61188;SDS011;47054;39.716;2.904;2022-11-02T00:54:00;8.85;;;3.80;;
61188;SDS011;47054;39.716;2.904;2022-11-02T00:56:45;8.45;;;3.53;;
61188;SDS011;47054;39.716;2.904;2022-11-02T00:59:30;5.05;;;2.88;;
61188;SDS011;47054;39.716;2.904;2022-11-02T01:02:15;7.38;;;3.60;;
61188;SDS011;47054;39.716;2.904;2022-11-02T01:04:59;8.55;;;4.03;;
61188;SDS011;47054;39.716;2.904;2022-11-02T01:07:44;6.55;;;3.92;;
61188;SDS011;47054;39.716;2.904;2022-11-02T01:10:29;9.85;;;3.63;;
61188;SDS011;47054;39.716;2.904;2022-11-02T01:13:13;10.25;;;3.90;;
61188;SDS011;47054;39.716;2.904;2022-11-02T01:15:58;13.80;;;4.15;;
61188;SDS011;47054;39.716;2.904;2022-11-02T01:18:46;9.93;;;3.75;;
61188;SDS011;47054;39.716;2.904;2022-11-02T01:21:36;7.72;;;3.30;;
61188;SDS011;47054;39.716;2.904;2022-11-02T01:24:20;9.20;;;3.35;;
61188;SDS011;47054;39.716;2.904;2022-11-02T01:27:05;8.90;;;3.40;;
61188;SDS011;47054;39.716;2.904;2022-11-02T01:29:50;6.97;;;3.47;;
61188;SDS011;47054;39.716;2.904;2022-11-02T01:32:34;6.18;;;3.10;;
61188;SDS011;47054;39.716;2.904;2022-11-02T01:35:18;12.45;;;3.83;;
61188;SDS011;47054;39.716;2.904;2022-11-02T01:38:03;7.63;;;3.30;;
61188;SDS011;47054;39.716;2.904;2022-11-02T01:40:47;7.32;;;3.78;;
61188;SDS011;47054;39.716;2.904;2022-11-02T01:43:35;5.97;;;2.65;;
61188;SDS011;47054;39.716;2.904;2022-11-02T01:46:21;9.30;;;3.40;;
61188;SDS011;47054;39.716;2.904;2022-11-02T01:49:13;5.63;;;2.78;;
61188;SDS011;47054;39.716;2.904;2022-11-02T01:54:57;7.95;;;2.97;;
61188;SDS011;47054;39.716;2.904;2022-11-02T01:57:45;7.88;;;3.20;;
61188;SDS011;47054;39.716;2.904;2022-11-02T02:00:34;7.38;;;3.00;;
61188;SDS011;47054;39.716;2.904;2022-11-02T02:03:19;7.85;;;3.17;;
61188;SDS011;47054;39.716;2.904;2022-11-02T02:06:07;8.38;;;3.15;;
61188;SDS011;47054;39.716;2.904;2022-11-02T02:08:54;6.22;;;2.80;;
61188;SDS011;47054;39.716;2.904;2022-11-02T02:11:44;7.75;;;3.40;;
61188;SDS011;47054;39.716;2.904;2022-11-02T02:14:28;7.32;;;3.03;;
61188;SDS011;47054;39.716;2.904;2022-11-02T02:17:25;8.18;;;2.95;;
61188;SDS011;47054;39.716;2.904;2022-11-02T02:29:53;6.57;;;2.63;;
61188;SDS011;47054;39.716;2.904;2022-11-02T02:33:00;6.53;;;2.50;;
61188;SDS011;47054;39.716;2.904;2022-11-02T02:35:59;5.20;;;2.55;;
61188;SDS011;47054;39.716;2.904;2022-11-02T02:41:51;8.45;;;2.55;;
61188;SDS011;47054;39.716;2.904;2022-11-02T02:44:38;7.85;;;3.40;;
61188;SDS011;47054;39.716;2.904;2022-11-02T02:47:27;8.82;;;2.40;;
61188;SDS011;47054;39.716;2.904;2022-11-02T02:50:17;7.88;;;2.80;;
61188;SDS011;47054;39.716;2.904;2022-11-02T02:53:06;8.15;;;2.80;;
61188;SDS011;47054;39.716;2.904;2022-11-02T02:55:51;9.35;;;2.83;;
61188;SDS011;47054;39.716;2.904;2022-11-02T02:58:50;6.63;;;2.38;;
61188;SDS011;47054;39.716;2.904;2022-11-02T03:01:38;11.13;;;2.75;;
61188;SDS011;47054;39.716;2.904;2022-11-02T03:04:23;7.20;;;2.42;;
61188;SDS011;47054;39.716;2.904;2022-11-02T03:07:08;6.22;;;2.53;;
61188;SDS011;47054;39.716;2.904;2022-11-02T03:17:02;10.85;;;2.50;;
61188;SDS011;47054;39.716;2.904;2022-11-02T03:22:46;5.47;;;2.30;;
61188;SDS011;47054;39.716;2.904;2022-11-02T03:25:48;10.98;;;2.72;;
61188;SDS011;47054;39.716;2.904;2022-11-02T03:34:43;8.65;;;2.40;;
61188;SDS011;47054;39.716;2.904;2022-11-02T03:37:37;5.07;;;3.05;;
61188;SDS011;47054;39.716;2.904;2022-11-02T03:40:32;10.98;;;3.03;;
61188;SDS011;47054;39.716;2.904;2022-11-02T03:43:21;5.07;;;2.78;;
61188;SDS011;47054;39.716;2.904;2022-11-02T03:46:10;8.60;;;2.88;;
61188;SDS011;47054;39.716;2.904;2022-11-02T03:48:56;7.07;;;3.38;;
61188;SDS011;47054;39.716;2.904;2022-11-02T03:51:42;5.53;;;2.65;;
61188;SDS011;47054;39.716;2.904;2022-11-02T03:57:26;8.75;;;2.90;;
61188;SDS011;47054;39.716;2.904;2022-11-02T04:00:17;5.05;;;2.60;;
61188;SDS011;47054;39.716;2.904;2022-11-02T04:03:12;6.53;;;2.90;;
61188;SDS011;47054;39.716;2.904;2022-11-02T04:06:01;6.32;;;2.67;;
61188;SDS011;47054;39.716;2.904;2022-11-02T04:08:49;7.25;;;2.83;;
61188;SDS011;47054;39.716;2.904;2022-11-02T04:11:37;11.00;;;3.10;;
61188;SDS011;47054;39.716;2.904;2022-11-02T04:14:40;9.27;;;3.05;;
61188;SDS011;47054;39.716;2.904;2022-11-02T04:17:29;6.82;;;2.88;;
61188;SDS011;47054;39.716;2.904;2022-11-02T04:20:34;6.07;;;2.92;;
61188;SDS011;47054;39.716;2.904;2022-11-02T04:23:19;9.60;;;3.15;;
61188;SDS011;47054;39.716;2.904;2022-11-02T04:26:22;5.53;;;2.83;;
61188;SDS011;47054;39.716;2.904;2022-11-02T04:29:07;6.55;;;3.28;;
61188;SDS011;47054;39.716;2.904;2022-11-02T04:31:52;8.65;;;3.13;;
61188;SDS011;47054;39.716;2.904;2022-11-02T04:34:37;6.05;;;2.90;;
61188;SDS011;47054;39.716;2.904;2022-11-02T04:37:21;9.60;;;3.22;;
61188;SDS011;47054;39.716;2.904;2022-11-02T04:40:24;9.77;;;3.40;;
61188;SDS011;47054;39.716;2.904;2022-11-02T04:43:10;6.57;;;3.13;;
61188;SDS011;47054;39.716;2.904;2022-11-02T04:45:56;6.15;;;2.80;;
61188;SDS011;47054;39.716;2.904;2022-11-02T04:48:42;6.47;;;2.90;;
61188;SDS011;47054;39.716;2.904;2022-11-02T04:51:27;6.03;;;2.88;;
61188;SDS011;47054;39.716;2.904;2022-11-02T04:54:13;10.40;;;3.10;;
61188;SDS011;47054;39.716;2.904;2022-11-02T04:56:58;11.73;;;3.20;;
61188;SDS011;47054;39.716;2.904;2022-11-02T04:59:44;7.63;;;2.80;;
61188;SDS011;47054;39.716;2.904;2022-11-02T05:02:28;5.85;;;2.90;;
61188;SDS011;47054;39.716;2.904;2022-11-02T05:05:14;7.68;;;3.33;;
61188;SDS011;47054;39.716;2.904;2022-11-02T05:07:59;9.45;;;3.08;;
61188;SDS011;47054;39.716;2.904;2022-11-02T05:10:44;11.40;;;3.58;;
61188;SDS011;47054;39.716;2.904;2022-11-02T05:13:30;7.95;;;3.50;;
61188;SDS011;47054;39.716;2.904;2022-11-02T05:16:17;10.27;;;3.97;;
61188;SDS011;47054;39.716;2.904;2022-11-02T05:19:02;7.65;;;3.05;;
61188;SDS011;47054;39.716;2.904;2022-11-02T05:21:47;7.38;;;3.25;;
61188;SDS011;47054;39.716;2.904;2022-11-02T05:24:31;8.85;;;3.40;;
61188;SDS011;47054;39.716;2.904;2022-11-02T05:27:17;7.47;;;3.20;;
61188;SDS011;47054;39.716;2.904;2022-11-02T05:30:03;8.20;;;3.65;;
61188;SDS011;47054;39.716;2.904;2022-11-02T05:32:54;8.40;;;3.53;;
61188;SDS011;47054;39.716;2.904;2022-11-02T05:35:41;10.70;;;3.80;;
61188;SDS011;47054;39.716;2.904;2022-11-02T05:38:26;11.43;;;4.38;;
61188;SDS011;47054;39.716;2.904;2022-11-02T05:41:11;10.57;;;3.35;;
61188;SDS011;47054;39.716;2.904;2022-11-02T05:43:57;8.85;;;3.50;;
61188;SDS011;47054;39.716;2.904;2022-11-02T05:46:45;7.45;;;3.17;;
61188;SDS011;47054;39.716;2.904;2022-11-02T05:49:29;8.93;;;3.28;;
61188;SDS011;47054;39.716;2.904;2022-11-02T05:52:14;7.90;;;3.10;;
61188;SDS011;47054;39.716;2.904;2022-11-02T05:54:58;8.98;;;3.60;;
61188;SDS011;47054;39.716;2.904;2022-11-02T05:57:43;11.25;;;3.30;;
61188;SDS011;47054;39.716;2.904;2022-11-02T06:00:33;9.05;;;3.30;;
61188;SDS011;47054;39.716;2.904;2022-11-02T06:03:21;14.07;;;3.47;;
61188;SDS011;47054;39.716;2.904;2022-11-02T06:06:06;8.40;;;3.42;;
61188;SDS011;47054;39.716;2.904;2022-11-02T06:08:53;11.73;;;4.15;;
61188;SDS011;47054;39.716;2.904;2022-11-02T06:11:38;5.97;;;3.38;;
61188;SDS011;47054;39.716;2.904;2022-11-02T06:14:22;10.85;;;3.20;;
61188;SDS011;47054;39.716;2.904;2022-11-02T06:17:06;9.55;;;3.30;;
61188;SDS011;47054;39.716;2.904;2022-11-02T06:19:51;7.90;;;3.35;;
61188;SDS011;47054;39.716;2.904;2022-11-02T06:22:39;9.43;;;3.50;;
61188;SDS011;47054;39.716;2.904;2022-11-02T06:25:24;10.70;;;3.50;;
61188;SDS011;47054;39.716;2.904;2022-11-02T06:28:09;11.88;;;3.58;;
61188;SDS011;47054;39.716;2.904;2022-11-02T06:30:54;10.55;;;3.60;;
61188;SDS011;47054;39.716;2.904;2022-11-02T06:33:39;7.80;;;3.40;;
61188;SDS011;47054;39.716;2.904;2022-11-02T06:36:25;10.60;;;3.20;;
61188;SDS011;47054;39.716;2.904;2022-11-02T06:39:09;13.60;;;3.53;;
61188;SDS011;47054;39.716;2.904;2022-11-02T06:41:54;8.48;;;3.40;;
61188;SDS011;47054;39.716;2.904;2022-11-02T06:44:38;9.80;;;3.45;;
61188;SDS011;47054;39.716;2.904;2022-11-02T06:47:23;12.73;;;3.50;;
61188;SDS011;47054;39.716;2.904;2022-11-02T06:50:08;9.80;;;3.70;;
61188;SDS011;47054;39.716;2.904;2022-11-02T06:52:52;9.65;;;3.60;;
61188;SDS011;47054;39.716;2.904;2022-11-02T06:55:37;12.77;;;3.67;;
61188;SDS011;47054;39.716;2.904;2022-11-02T06:58:22;8.98;;;3.33;;
61188;SDS011;47054;39.716;2.904;2022-11-02T07:01:07;8.32;;;3.47;;
61188;SDS011;47054;39.716;2.904;2022-11-02T07:03:52;7.80;;;3.22;;
61188;SDS011;47054;39.716;2.904;2022-11-02T07:06:36;8.77;;;3.22;;
61188;SDS011;47054;39.716;2.904;2022-11-02T07:09:21;10.85;;;3.30;;
61188;SDS011;47054;39.716;2.904;2022-11-02T07:12:05;8.13;;;4.00;;
61188;SDS011;47054;39.716;2.904;2022-11-02T07:14:50;13.40;;;3.80;;
61188;SDS011;47054;39.716;2.904;2022-11-02T07:17:37;8.30;;;3.50;;
61188;SDS011;47054;39.716;2.904;2022-11-02T07:20:22;9.15;;;3.35;;
61188;SDS011;47054;39.716;2.904;2022-11-02T07:23:08;12.15;;;3.90;;
61188;SDS011;47054;39.716;2.904;2022-11-02T07:25:53;9.18;;;4.03;;
61188;SDS011;47054;39.716;2.904;2022-11-02T07:28:37;9.25;;;3.55;;
61188;SDS011;47054;39.716;2.904;2022-11-02T07:31:22;12.20;;;3.88;;
61188;SDS011;47054;39.716;2.904;2022-11-02T07:34:06;9.30;;;3.70;;
61188;SDS011;47054;39.716;2.904;2022-11-02T07:36:51;9.60;;;4.00;;
61188;SDS011;47054;39.716;2.904;2022-11-02T07:39:35;8.20;;;3.60;;
61188;SDS011;47054;39.716;2.904;2022-11-02T07:42:20;10.57;;;4.25;;
61188;SDS011;47054;39.716;2.904;2022-11-02T07:45:07;10.23;;;3.67;;
61188;SDS011;47054;39.716;2.904;2022-11-02T07:47:52;9.07;;;4.10;;
61188;SDS011;47054;39.716;2.904;2022-11-02T07:50:37;10.63;;;3.70;;
61188;SDS011;47054;39.716;2.904;2022-11-02T07:53:21;10.55;;;4.10;;
61188;SDS011;47054;39.716;2.904;2022-11-02T07:56:06;11.95;;;3.75;;
61188;SDS011;47054;39.716;2.904;2022-11-02T07:58:50;8.48;;;3.80;;
61188;SDS011;47054;39.716;2.904;2022-11-02T08:01:35;10.95;;;3.63;;
61188;SDS011;47054;39.716;2.904;2022-11-02T08:04:19;8.30;;;3.78;;
61188;SDS011;47054;39.716;2.904;2022-11-02T08:07:03;9.43;;;3.78;;
61188;SDS011;47054;39.716;2.904;2022-11-02T08:09:48;8.15;;;3.50;;
61188;SDS011;47054;39.716;2.904;2022-11-02T08:12:32;11.73;;;4.32;;
61188;SDS011;47054;39.716;2.904;2022-11-02T08:15:19;9.90;;;4.07;;
61188;SDS011;47054;39.716;2.904;2022-11-02T08:18:05;12.55;;;4.35;;
61188;SDS011;47054;39.716;2.904;2022-11-02T08:21:16;9.57;;;3.88;;
61188;SDS011;47054;39.716;2.904;2022-11-02T08:24:01;11.27;;;4.47;;
61188;SDS011;47054;39.716;2.904;2022-11-02T08:26:45;10.68;;;3.92;;
61188;SDS011;47054;39.716;2.904;2022-11-02T08:29:30;9.23;;;4.65;;
61188;SDS011;47054;39.716;2.904;2022-11-02T08:32:15;12.85;;;3.97;;
61188;SDS011;47054;39.716;2.904;2022-11-02T08:35:00;9.82;;;4.32;;
61188;SDS011;47054;39.716;2.904;2022-11-02T08:37:44;8.18;;;4.32;;
61188;SDS011;47054;39.716;2.904;2022-11-02T08:40:29;11.18;;;4.53;;
61188;SDS011;47054;39.716;2.904;2022-11-02T08:43:14;12.05;;;4.32;;
61188;SDS011;47054;39.716;2.904;2022-11-02T08:45:59;10.75;;;4.07;;
61188;SDS011;47054;39.716;2.904;2022-11-02T08:48:44;10.38;;;4.20;;
61188;SDS011;47054;39.716;2.904;2022-11-02T08:51:28;8.45;;;4.32;;
61188;SDS011;47054;39.716;2.904;2022-11-02T08:54:13;11.82;;;4.38;;
61188;SDS011;47054;39.716;2.904;2022-11-02T08:56:58;7.95;;;3.88;;
61188;SDS011;47054;39.716;2.904;2022-11-02T08:59:42;8.25;;;4.00;;
61188;SDS011;47054;39.716;2.904;2022-11-02T09:02:26;8.40;;;4.13;;
61188;SDS011;47054;39.716;2.904;2022-11-02T09:05:11;9.20;;;4.45;;
61188;SDS011;47054;39.716;2.904;2022-11-02T09:07:56;9.02;;;4.05;;
61188;SDS011;47054;39.716;2.904;2022-11-02T09:10:47;8.68;;;4.20;;
61188;SDS011;47054;39.716;2.904;2022-11-02T09:13:34;9.75;;;4.43;;
61188;SDS011;47054;39.716;2.904;2022-11-02T09:16:21;12.65;;;5.20;;
61188;SDS011;47054;39.716;2.904;2022-11-02T09:19:06;9.88;;;4.53;;
61188;SDS011;47054;39.716;2.904;2022-11-02T09:21:50;13.52;;;4.47;;
61188;SDS011;47054;39.716;2.904;2022-11-02T09:24:35;10.50;;;4.25;;
61188;SDS011;47054;39.716;2.904;2022-11-02T09:27:19;7.05;;;3.97;;
61188;SDS011;47054;39.716;2.904;2022-11-02T09:30:04;12.73;;;4.20;;
61188;SDS011;47054;39.716;2.904;2022-11-02T09:32:57;10.88;;;4.30;;
61188;SDS011;47054;39.716;2.904;2022-11-02T09:35:44;8.50;;;4.38;;
61188;SDS011;47054;39.716;2.904;2022-11-02T09:38:31;12.45;;;4.45;;
61188;SDS011;47054;39.716;2.904;2022-11-02T09:46:54;13.30;;;4.20;;
61188;SDS011;47054;39.716;2.904;2022-11-02T09:49:39;10.32;;;4.20;;
61188;SDS011;47054;39.716;2.904;2022-11-02T09:52:30;10.00;;;4.47;;
61188;SDS011;47054;39.716;2.904;2022-11-02T09:55:20;9.20;;;4.35;;
61188;SDS011;47054;39.716;2.904;2022-11-02T09:58:15;16.27;;;4.57;;
61188;SDS011;47054;39.716;2.904;2022-11-02T10:01:38;13.25;;;4.10;;
61188;SDS011;47054;39.716;2.904;2022-11-02T10:07:31;8.70;;;3.95;;
61188;SDS011;47054;39.716;2.904;2022-11-02T10:10:22;10.27;;;4.43;;
61188;SDS011;47054;39.716;2.904;2022-11-02T10:16:10;9.70;;;4.53;;
61188;SDS011;47054;39.716;2.904;2022-11-02T10:19:00;10.30;;;4.22;;
61188;SDS011;47054;39.716;2.904;2022-11-02T10:21:50;10.23;;;4.80;;
61188;SDS011;47054;39.716;2.904;2022-11-02T10:24:43;12.40;;;4.60;;
61188;SDS011;47054;39.716;2.904;2022-11-02T10:27:29;9.85;;;4.53;;
61188;SDS011;47054;39.716;2.904;2022-11-02T10:30:18;7.05;;;4.10;;
61188;SDS011;47054;39.716;2.904;2022-11-02T10:33:06;12.10;;;5.13;;
61188;SDS011;47054;39.716;2.904;2022-11-02T10:42:30;10.02;;;4.10;;
61188;SDS011;47054;39.716;2.904;2022-11-02T10:51:12;9.48;;;4.35;;
61188;SDS011;47054;39.716;2.904;2022-11-02T10:53:59;11.27;;;4.60;;
61188;SDS011;47054;39.716;2.904;2022-11-02T10:56:43;6.78;;;4.20;;
61188;SDS011;47054;39.716;2.904;2022-11-02T10:59:30;10.45;;;4.35;;
61188;SDS011;47054;39.716;2.904;2022-11-02T11:02:15;7.68;;;4.07;;
61188;SDS011;47054;39.716;2.904;2022-11-02T11:05:10;8.45;;;4.50;;
61188;SDS011;47054;39.716;2.904;2022-11-02T11:07:59;10.50;;;4.32;;
61188;SDS011;47054;39.716;2.904;2022-11-02T11:10:44;8.40;;;4.00;;
61188;SDS011;47054;39.716;2.904;2022-11-02T11:13:30;9.63;;;3.95;;
61188;SDS011;47054;39.716;2.904;2022-11-02T11:16:14;8.70;;;4.10;;
61188;SDS011;47054;39.716;2.904;2022-11-02T11:18:59;10.23;;;4.38;;
61188;SDS011;47054;39.716;2.904;2022-11-02T11:21:44;8.50;;;4.20;;
61188;SDS011;47054;39.716;2.904;2022-11-02T11:24:31;13.98;;;4.47;;
61188;SDS011;47054;39.716;2.904;2022-11-02T11:30:11;11.38;;;4.05;;
61188;SDS011;47054;39.716;2.904;2022-11-02T11:33:13;8.93;;;4.05;;
61188;SDS011;47054;39.716;2.904;2022-11-02T11:35:58;9.35;;;4.28;;
61188;SDS011;47054;39.716;2.904;2022-11-02T11:38:45;9.73;;;4.30;;
61188;SDS011;47054;39.716;2.904;2022-11-02T11:41:31;10.00;;;4.40;;
61188;SDS011;47054;39.716;2.904;2022-11-02T11:44:18;8.88;;;4.28;;
61188;SDS011;47054;39.716;2.904;2022-11-02T11:47:04;10.90;;;4.22;;
61188;SDS011;47054;39.716;2.904;2022-11-02T11:49:48;8.02;;;4.45;;
61188;SDS011;47054;39.716;2.904;2022-11-02T11:52:33;11.80;;;4.30;;
61188;SDS011;47054;39.716;2.904;2022-11-02T11:55:20;11.57;;;4.40;;
61188;SDS011;47054;39.716;2.904;2022-11-02T12:01:13;10.50;;;4.70;;
61188;SDS011;47054;39.716;2.904;2022-11-02T12:04:01;11.40;;;4.47;;
61188;SDS011;47054;39.716;2.904;2022-11-02T12:06:51;11.48;;;4.57;;
61188;SDS011;47054;39.716;2.904;2022-11-02T12:12:27;12.00;;;4.40;;
61188;SDS011;47054;39.716;2.904;2022-11-02T12:18:47;10.82;;;4.15;;
61188;SDS011;47054;39.716;2.904;2022-11-02T12:28:01;8.35;;;4.70;;
61188;SDS011;47054;39.716;2.904;2022-11-02T12:30:53;12.98;;;5.25;;
61188;SDS011;47054;39.716;2.904;2022-11-02T12:49:15;8.10;;;4.78;;
61188;SDS011;47054;39.716;2.904;2022-11-02T12:55:30;12.90;;;4.80;;
61188;SDS011;47054;39.716;2.904;2022-11-02T13:04:20;10.40;;;4.97;;
61188;SDS011;47054;39.716;2.904;2022-11-02T13:07:10;13.52;;;5.20;;
61188;SDS011;47054;39.716;2.904;2022-11-02T13:10:04;12.55;;;4.80;;
61188;SDS011;47054;39.716;2.904;2022-11-02T13:12:58;13.20;;;5.03;;
61188;SDS011;47054;39.716;2.904;2022-11-02T13:15:46;13.25;;;5.10;;
61188;SDS011;47054;39.716;2.904;2022-11-02T13:18:34;9.00;;;4.82;;
61188;SDS011;47054;39.716;2.904;2022-11-02T13:21:30;16.33;;;5.55;;
61188;SDS011;47054;39.716;2.904;2022-11-02T13:24:28;11.30;;;5.20;;
61188;SDS011;47054;39.716;2.904;2022-11-02T13:27:24;12.52;;;4.88;;
61188;SDS011;47054;39.716;2.904;2022-11-02T13:30:14;13.13;;;5.07;;
61188;SDS011;47054;39.716;2.904;2022-11-02T13:35:59;15.68;;;5.68;;
61188;SDS011;47054;39.716;2.904;2022-11-02T13:38:51;14.40;;;5.10;;
61188;SDS011;47054;39.716;2.904;2022-11-02T13:50:58;10.88;;;5.07;;
61188;SDS011;47054;39.716;2.904;2022-11-02T13:53:50;9.82;;;4.80;;
61188;SDS011;47054;39.716;2.904;2022-11-02T13:56:44;13.23;;;4.78;;
61188;SDS011;47054;39.716;2.904;2022-11-02T13:59:36;13.00;;;4.75;;
61188;SDS011;47054;39.716;2.904;2022-11-02T14:02:22;15.07;;;5.00;;
61188;SDS011;47054;39.716;2.904;2022-11-02T14:05:08;10.23;;;5.45;;
61188;SDS011;47054;39.716;2.904;2022-11-02T14:08:34;14.65;;;5.53;;
61188;SDS011;47054;39.716;2.904;2022-11-02T14:11:23;10.10;;;5.20;;
61188;SDS011;47054;39.716;2.904;2022-11-02T14:14:18;14.18;;;5.18;;
61188;SDS011;47054;39.716;2.904;2022-11-02T14:17:09;13.82;;;5.53;;
61188;SDS011;47054;39.716;2.904;2022-11-02T14:19:55;15.18;;;5.47;;
61188;SDS011;47054;39.716;2.904;2022-11-02T14:22:40;10.68;;;5.20;;
61188;SDS011;47054;39.716;2.904;2022-11-02T14:25:24;15.23;;;5.63;;
61188;SDS011;47054;39.716;2.904;2022-11-02T14:28:42;14.35;;;5.50;;
61188;SDS011;47054;39.716;2.904;2022-11-02T14:31:30;12.10;;;5.50;;
61188;SDS011;47054;39.716;2.904;2022-11-02T14:34:26;16.38;;;5.43;;
61188;SDS011;47054;39.716;2.904;2022-11-02T14:41:01;11.07;;;5.75;;
61188;SDS011;47054;39.716;2.904;2022-11-02T14:50:17;12.10;;;5.43;;
61188;SDS011;47054;39.716;2.904;2022-11-02T14:53:03;14.88;;;5.38;;
61188;SDS011;47054;39.716;2.904;2022-11-02T14:56:01;17.33;;;5.40;;
61188;SDS011;47054;39.716;2.904;2022-11-02T14:58:53;12.68;;;5.63;;
61188;SDS011;47054;39.716;2.904;2022-11-02T15:01:50;16.75;;;5.43;;
61188;SDS011;47054;39.716;2.904;2022-11-02T15:05:00;13.68;;;5.10;;
61188;SDS011;47054;39.716;2.904;2022-11-02T15:07:53;15.18;;;5.55;;
61188;SDS011;47054;39.716;2.904;2022-11-02T15:10:45;12.38;;;5.65;;
61188;SDS011;47054;39.716;2.904;2022-11-02T15:13:44;14.55;;;5.55;;
61188;SDS011;47054;39.716;2.904;2022-11-02T15:16:36;12.13;;;5.18;;
61188;SDS011;47054;39.716;2.904;2022-11-02T15:20:15;13.23;;;5.20;;
61188;SDS011;47054;39.716;2.904;2022-11-02T15:23:18;13.02;;;5.13;;
61188;SDS011;47054;39.716;2.904;2022-11-02T15:26:04;10.93;;;4.82;;
61188;SDS011;47054;39.716;2.904;2022-11-02T15:28:51;12.38;;;5.20;;
61188;SDS011;47054;39.716;2.904;2022-11-02T15:31:40;15.10;;;5.10;;
61188;SDS011;47054;39.716;2.904;2022-11-02T15:34:30;9.30;;;4.68;;
61188;SDS011;47054;39.716;2.904;2022-11-02T15:37:28;14.63;;;5.50;;
61188;SDS011;47054;39.716;2.904;2022-11-02T15:40:19;16.40;;;5.03;;
61188;SDS011;47054;39.716;2.904;2022-11-02T15:55:13;10.05;;;5.35;;
61188;SDS011;47054;39.716;2.904;2022-11-02T16:04:02;13.85;;;4.95;;
61188;SDS011;47054;39.716;2.904;2022-11-02T16:06:49;12.15;;;4.70;;
61188;SDS011;47054;39.716;2.904;2022-11-02T16:09:34;14.75;;;4.95;;
61188;SDS011;47054;39.716;2.904;2022-11-02T16:12:21;13.10;;;5.28;;
61188;SDS011;47054;39.716;2.904;2022-11-02T16:15:12;14.25;;;4.63;;
61188;SDS011;47054;39.716;2.904;2022-11-02T16:17:58;10.13;;;5.35;;
61188;SDS011;47054;39.716;2.904;2022-11-02T16:20:43;11.98;;;5.10;;
61188;SDS011;47054;39.716;2.904;2022-11-02T16:23:29;14.43;;;5.47;;
61188;SDS011;47054;39.716;2.904;2022-11-02T16:26:17;11.85;;;4.90;;
61188;SDS011;47054;39.716;2.904;2022-11-02T16:29:05;17.20;;;4.95;;
61188;SDS011;47054;39.716;2.904;2022-11-02T16:31:51;12.85;;;5.10;;
61188;SDS011;47054;39.716;2.904;2022-11-02T16:34:36;14.80;;;5.00;;
61188;SDS011;47054;39.716;2.904;2022-11-02T16:37:22;11.25;;;4.55;;
61188;SDS011;47054;39.716;2.904;2022-11-02T16:40:13;14.95;;;5.20;;
61188;SDS011;47054;39.716;2.904;2022-11-02T16:43:00;13.10;;;5.07;;
61188;SDS011;47054;39.716;2.904;2022-11-02T16:45:44;10.27;;;4.55;;
61188;SDS011;47054;39.716;2.904;2022-11-02T16:48:33;12.15;;;4.50;;
61188;SDS011;47054;39.716;2.904;2022-11-02T16:51:17;9.20;;;4.60;;
61188;SDS011;47054;39.716;2.904;2022-11-02T16:54:15;9.15;;;4.43;;
61188;SDS011;47054;39.716;2.904;2022-11-02T17:02:48;10.50;;;4.53;;
61188;SDS011;47054;39.716;2.904;2022-11-02T17:05:33;10.43;;;4.40;;
61188;SDS011;47054;39.716;2.904;2022-11-02T17:08:21;12.48;;;4.50;;
61188;SDS011;47054;39.716;2.904;2022-11-02T17:11:12;13.23;;;4.60;;
61188;SDS011;47054;39.716;2.904;2022-11-02T17:13:59;16.30;;;4.95;;
61188;SDS011;47054;39.716;2.904;2022-11-02T17:20:04;11.90;;;4.28;;
61188;SDS011;47054;39.716;2.904;2022-11-02T17:25:43;8.80;;;4.50;;
61188;SDS011;47054;39.716;2.904;2022-11-02T17:28:44;10.48;;;4.93;;
61188;SDS011;47054;39.716;2.904;2022-11-02T17:31:31;9.00;;;4.55;;
61188;SDS011;47054;39.716;2.904;2022-11-02T17:34:18;7.82;;;4.10;;
61188;SDS011;47054;39.716;2.904;2022-11-02T17:37:03;10.30;;;4.32;;
61188;SDS011;47054;39.716;2.904;2022-11-02T17:39:49;12.57;;;4.25;;
61188;SDS011;47054;39.716;2.904;2022-11-02T17:42:34;11.60;;;4.57;;
61188;SDS011;47054;39.716;2.904;2022-11-02T17:45:38;12.00;;;4.40;;
61188;SDS011;47054;39.716;2.904;2022-11-02T17:48:22;10.57;;;4.68;;
61188;SDS011;47054;39.716;2.904;2022-11-02T17:51:07;11.45;;;4.30;;
61188;SDS011;47054;39.716;2.904;2022-11-02T17:53:54;10.27;;;4.30;;
61188;SDS011;47054;39.716;2.904;2022-11-02T17:56:39;12.60;;;4.97;;
61188;SDS011;47054;39.716;2.904;2022-11-02T17:59:24;10.73;;;4.70;;
61188;SDS011;47054;39.716;2.904;2022-11-02T18:02:12;11.88;;;4.80;;
61188;SDS011;47054;39.716;2.904;2022-11-02T18:04:58;15.82;;;5.00;;
61188;SDS011;47054;39.716;2.904;2022-11-02T18:07:42;11.55;;;5.40;;
61188;SDS011;47054;39.716;2.904;2022-11-02T18:10:31;11.48;;;4.80;;
61188;SDS011;47054;39.716;2.904;2022-11-02T18:13:18;11.02;;;4.90;;
61188;SDS011;47054;39.716;2.904;2022-11-02T18:16:04;10.40;;;4.65;;
61188;SDS011;47054;39.716;2.904;2022-11-02T18:18:49;11.95;;;4.80;;
61188;SDS011;47054;39.716;2.904;2022-11-02T18:21:34;10.82;;;4.53;;
61188;SDS011;47054;39.716;2.904;2022-11-02T18:24:18;13.20;;;5.03;;
61188;SDS011;47054;39.716;2.904;2022-11-02T18:27:03;12.38;;;5.40;;
61188;SDS011;47054;39.716;2.904;2022-11-02T18:29:48;11.95;;;4.93;;
61188;SDS011;47054;39.716;2.904;2022-11-02T18:32:36;9.82;;;4.90;;
61188;SDS011;47054;39.716;2.904;2022-11-02T18:35:22;15.43;;;5.15;;
61188;SDS011;47054;39.716;2.904;2022-11-02T18:38:07;10.13;;;4.70;;
61188;SDS011;47054;39.716;2.904;2022-11-02T18:40:52;13.27;;;5.35;;
61188;SDS011;47054;39.716;2.904;2022-11-02T18:43:36;12.52;;;5.03;;
61188;SDS011;47054;39.716;2.904;2022-11-02T18:46:20;9.38;;;4.88;;
61188;SDS011;47054;39.716;2.904;2022-11-02T18:49:05;12.63;;;5.50;;
61188;SDS011;47054;39.716;2.904;2022-11-02T18:51:50;14.70;;;4.63;;
61188;SDS011;47054;39.716;2.904;2022-11-02T18:54:34;17.88;;;5.50;;
61188;SDS011;47054;39.716;2.904;2022-11-02T18:57:19;14.75;;;4.95;;
61188;SDS011;47054;39.716;2.904;2022-11-02T19:00:04;12.75;;;5.53;;
61188;SDS011;47054;39.716;2.904;2022-11-02T19:02:48;12.95;;;5.90;;
61188;SDS011;47054;39.716;2.904;2022-11-02T19:05:33;15.45;;;6.15;;
61188;SDS011;47054;39.716;2.904;2022-11-02T19:08:36;9.77;;;5.95;;
61188;SDS011;47054;39.716;2.904;2022-11-02T19:11:39;12.05;;;5.60;;
61188;SDS011;47054;39.716;2.904;2022-11-02T19:14:23;18.08;;;5.53;;
61188;SDS011;47054;39.716;2.904;2022-11-02T19:17:08;18.13;;;5.88;;
61188;SDS011;47054;39.716;2.904;2022-11-02T19:19:53;12.77;;;5.70;;